^^
Station Historical Data
Daily Summary for January 31, 2017 Units:  English    Metric   Both
« Previous Day
Next Day »
Daily Weekly Monthly Yearly Custom
  High: Low: Average:
Temperature: 28.8 °F 21.2 °F 25.7 °F
Dew Point: 27.3 °F 11.1 °F 19.5 °F
Humidity: 94% 54% 78%
Wind Speed: 3.0mph 0.0mph 0.2mph
Wind Gust: 12.0mph - -
Wind- - SSE
Pressure: 30.03 in 29.78 in -
Precipitation: 0.00 in    
Historical Graphs
 
 
Tabular Data for January 31, 2017
Time Temperature Dew Point Pressure Wind Wind Speed Wind Gust Humidity Rainfall Rate (Hourly) Conditions
00:00 25.4 °F 11.1 °F 29.98 in Calm   2.0 mph 54% 0.00 in CLR
00:10 25.2 °F 11.3 °F 29.98 in Calm   5.0 mph 55% 0.00 in FEW
00:20 25.2 °F 11.2 °F 29.98 in Calm   2.0 mph 55% 0.00 in FEW
00:30 25.1 °F 11.6 °F 29.99 in Calm   2.0 mph 56% 0.00 in FEW
00:40 25.0 °F 11.5 °F 29.99 in Calm   3.0 mph 56% 0.00 in FEW
00:50 24.9 °F 11.8 °F 29.99 in North 1.0 mph 5.0 mph 57% 0.00 in FEW
01:00 24.9 °F 11.8 °F 29.99 in NE 1.0 mph 5.0 mph 57% 0.00 in FEW
01:10 24.8 °F 11.7 °F 30.00 in Calm   9.0 mph 57% 0.00 in CLR
01:20 24.6 °F 11.9 °F 30.00 in Calm   5.0 mph 58% 0.00 in CLR
01:30 24.5 °F 11.4 °F 30.00 in NNE 2.0 mph 12.0 mph 57% 0.00 in CLR
01:40 24.4 °F 11.7 °F 29.99 in Calm   12.0 mph 58% 0.00 in CLR
01:50 24.2 °F 11.9 °F 29.99 in North 3.0 mph 7.0 mph 59% 0.00 in CLR
02:00 23.9 °F 12.0 °F 30.00 in North 2.0 mph 6.0 mph 60% 0.00 in CLR
02:10 23.8 °F 12.7 °F 30.00 in Calm   4.0 mph 62% 0.00 in CLR
02:20 23.6 °F 12.1 °F 30.00 in NNE 1.0 mph 3.0 mph 61% 0.00 in CLR
02:30 23.5 °F 12.0 °F 30.01 in NNE 1.0 mph 6.0 mph 61% 0.00 in CLR
02:40 23.5 °F 12.4 °F 30.02 in NW 1.0 mph 5.0 mph 62% 0.00 in CLR
02:50 23.7 °F 12.5 °F 30.03 in Calm   5.0 mph 62% 0.00 in CLR
03:00 23.6 °F 12.5 °F 30.03 in Calm   4.0 mph 62% 0.00 in CLR
03:10 23.4 °F 12.3 °F 30.02 in NNW 1.0 mph 4.0 mph 62% 0.00 in BKN
03:20 23.3 °F 12.2 °F 30.02 in WNW 1.0 mph 3.0 mph 62% 0.00 in BKN
03:30 23.2 °F 12.1 °F 30.02 in Calm   2.0 mph 62% 0.00 in BKN
03:40 23.1 °F 12.0 °F 30.02 in Calm   2.0 mph 62% 0.00 in BKN
03:50 22.9 °F 11.8 °F 30.02 in Calm   2.0 mph 62% 0.00 in BKN
04:00 22.5 °F 11.8 °F 30.02 in Calm   1.0 mph 63% 0.00 in BKN
04:10 22.2 °F 11.9 °F 30.01 in Calm   1.0 mph 64% 0.00 in BKN
04:20 22.5 °F 12.5 °F 30.01 in Calm   1.0 mph 65% 0.00 in BKN
04:30 22.3 °F 12.3 °F 30.01 in Calm   1.0 mph 65% 0.00 in BKN
04:40 22.4 °F 12.4 °F 30.02 in Calm     65% 0.00 in BKN
04:50 22.6 °F 12.6 °F 30.00 in Calm     65% 0.00 in BKN
05:00 22.8 °F 12.8 °F 30.00 in Calm     65% 0.00 in BKN
05:10 22.8 °F 12.4 °F 30.00 in Calm     64% 0.00 in SCT
05:20 22.7 °F 12.7 °F 30.00 in Calm     65% 0.00 in SCT
05:30 22.5 °F 12.5 °F 30.00 in Calm     65% 0.00 in SCT
05:40 22.3 °F 12.3 °F 30.00 in Calm     65% 0.00 in SCT
05:50 22.2 °F 12.2 °F 30.00 in Calm     65% 0.00 in SCT
06:00 22.2 °F 12.2 °F 30.00 in Calm     65% 0.00 in SCT
06:10 21.9 °F 11.9 °F 30.00 in Calm     65% 0.00 in SCT
06:20 21.8 °F 11.8 °F 29.99 in Calm     65% 0.00 in SCT
06:30 21.6 °F 12.3 °F 29.99 in Calm     67% 0.00 in SCT
06:40 21.6 °F 12.7 °F 29.99 in Calm     68% 0.00 in SCT
06:50 21.6 °F 13.0 °F 29.99 in Calm     69% 0.00 in SCT
07:00 21.4 °F 12.8 °F 29.99 in Calm     69% 0.00 in SCT
07:10 21.5 °F 12.9 °F 29.98 in Calm     69% 0.00 in BKN
07:20 21.3 °F 12.7 °F 29.98 in Calm     69% 0.00 in BKN
07:30 21.2 °F 12.9 °F 29.98 in Calm     70% 0.00 in BKN
07:40 21.3 °F 13.0 °F 29.99 in Calm     70% 0.00 in BKN
07:50 21.5 °F 13.2 °F 29.98 in Calm   1.0 mph 70% 0.00 in BKN
08:00 21.9 °F 13.3 °F 29.98 in Calm   1.0 mph 69% 0.00 in BKN
08:10 22.4 °F 13.1 °F 29.97 in Calm   2.0 mph 67% 0.00 in SCT
08:20 22.8 °F 13.1 °F 29.98 in Calm   2.0 mph 66% 0.00 in SCT
08:30 23.2 °F 13.2 °F 29.97 in Calm   2.0 mph 65% 0.00 in SCT
08:40 23.6 °F 13.2 °F 29.97 in Calm   2.0 mph 64% 0.00 in SCT
08:50 24.1 °F 12.6 °F 29.97 in Calm   2.0 mph 61% 0.00 in SCT
09:00 24.7 °F 13.1 °F 29.97 in Calm   2.0 mph 61% 0.00 in SCT
09:10 25.2 °F 13.6 °F 29.98 in Calm   2.0 mph 61% 0.00 in BKN
09:20 25.5 °F 13.9 °F 29.97 in Calm   2.0 mph 61% 0.00 in BKN
09:30 25.7 °F 14.5 °F 29.97 in Calm   4.0 mph 62% 0.00 in BKN
09:40 25.9 °F 14.7 °F 29.96 in Calm   2.0 mph 62% 0.00 in BKN
09:50 26.1 °F 14.8 °F 29.97 in Calm   3.0 mph 62% 0.00 in BKN
10:00 26.1 °F 14.9 °F 29.95 in East 1.0 mph 4.0 mph 62% 0.00 in BKN
10:10 25.9 °F 17.1 °F 29.94 in SW 1.0 mph 5.0 mph 69% 0.00 in BKN
10:20 25.5 °F 18.7 °F 29.95 in Calm   2.0 mph 75% 0.00 in BKN
10:30 25.2 °F 19.3 °F 29.95 in Calm   4.0 mph 78% 0.00 in BKN
10:40 25.0 °F 20.3 °F 29.96 in Calm   3.0 mph 82% 0.00 in BKN
10:50 24.8 °F 20.4 °F 29.95 in Calm   5.0 mph 83% 0.00 in BKN
11:00 24.7 °F 20.8 °F 29.94 in Calm   4.0 mph 85% 0.00 in BKN
11:10 25.2 °F 21.9 °F 29.93 in Calm   3.0 mph 87% 0.00 in -SN
11:20 25.5 °F 21.9 °F 29.92 in Calm   3.0 mph 86% 0.00 in -SN
11:30 25.9 °F 22.3 °F 29.91 in SE 1.0 mph 6.0 mph 86% 0.00 in -SN
11:40 25.9 °F 22.0 °F 29.91 in Calm   5.0 mph 85% 0.00 in -SN
11:50 26.1 °F 22.2 °F 29.90 in Calm   4.0 mph 85% 0.00 in -SN
12:00 26.1 °F 22.2 °F 29.89 in Calm   3.0 mph 85% 0.00 in -SN
12:10 25.9 °F 22.0 °F 29.88 in ENE 1.0 mph 3.0 mph 85% 0.00 in -SN
12:20 25.9 °F 22.0 °F 29.88 in SSW 1.0 mph 4.0 mph 85% 0.00 in -SN
12:30 25.8 °F 22.2 °F 29.87 in Calm   3.0 mph 86% 0.00 in -SN
12:40 25.7 °F 22.4 °F 29.87 in Calm   4.0 mph 87% 0.00 in -SN
12:50 25.6 °F 22.3 °F 29.85 in Calm   2.0 mph 87% 0.00 in -SN
13:00 25.6 °F 22.6 °F 29.85 in Calm   3.0 mph 88% 0.00 in -SN
13:10 25.8 °F 22.7 °F 29.84 in Calm   4.0 mph 88% 0.00 in -SN
13:20 25.9 °F 22.8 °F 29.83 in Calm   2.0 mph 88% 0.00 in -SN
13:30 25.9 °F 23.1 °F 29.82 in NE 1.0 mph 3.0 mph 89% 0.00 in -SN
13:40 25.8 °F 23.0 °F 29.82 in Calm   5.0 mph 89% 0.00 in -SN
13:50 26.0 °F 23.2 °F 29.82 in Calm   7.0 mph 89% 0.00 in -SN
14:00 26.5 °F 23.7 °F 29.81 in Calm   3.0 mph 89% 0.00 in -SN
14:10 26.7 °F 23.9 °F 29.80 in Calm   4.0 mph 89% 0.00 in -SN
14:20 26.7 °F 23.9 °F 29.80 in Calm   5.0 mph 89% 0.00 in -SN
14:30 26.8 °F 24.0 °F 29.79 in Calm   7.0 mph 89% 0.00 in -SN
14:40 27.2 °F 24.4 °F 29.79 in Calm   4.0 mph 89% 0.00 in -SN
14:50 27.4 °F 24.6 °F 29.78 in Calm   4.0 mph 89% 0.00 in -SN
15:00 27.6 °F 24.8 °F 29.78 in Calm   4.0 mph 89% 0.00 in -SN
15:10 27.8 °F 25.0 °F 29.79 in Calm   4.0 mph 89% 0.00 in -SN
15:20 27.8 °F 24.7 °F 29.79 in Calm   4.0 mph 88% 0.00 in -SN
15:40 28.0 °F 24.9 °F 29.79 in Calm   3.0 mph 88% 0.00 in -SN
15:50 28.0 °F 24.9 °F 29.80 in Calm   2.0 mph 88% 0.00 in -SN
16:00 28.0 °F 24.9 °F 29.80 in Calm   2.0 mph 88% 0.00 in -SN
16:20 27.9 °F 25.0 °F 29.82 in West 1.0 mph 4.0 mph 89% 0.00 in -SN
16:30 27.9 °F 25.3 °F 29.82 in NNE 1.0 mph 3.0 mph 90% 0.00 in -SN
16:40 28.0 °F 25.4 °F 29.82 in Calm   2.0 mph 90% 0.00 in -SN
16:50 27.9 °F 25.3 °F 29.82 in Calm   1.0 mph 90% 0.00 in -SN
17:00 27.9 °F 25.6 °F 29.82 in Calm   1.0 mph 91% 0.00 in -SN
17:10 27.9 °F 25.6 °F 29.83 in Calm     91% 0.00 in -SN
17:20 27.9 °F 25.6 °F 29.83 in Calm     91% 0.00 in -SN
17:30 27.9 °F 25.6 °F 29.83 in Calm     91% 0.00 in -SN
17:40 27.9 °F 25.6 °F 29.83 in Calm     91% 0.00 in -SN
17:50 27.9 °F 25.6 °F 29.83 in Calm     91% 0.00 in -SN
18:00 28.0 °F 25.7 °F 29.84 in Calm     91% 0.00 in -SN
18:10 28.1 °F 25.8 °F 29.84 in Calm     91% 0.00 in -SN
18:20 28.2 °F 25.9 °F 29.84 in Calm     91% 0.00 in -SN
18:30 28.3 °F 26.3 °F 29.84 in Calm   1.0 mph 92% 0.00 in -SN
18:40 28.3 °F 26.0 °F 29.84 in Calm     91% 0.00 in -SN
18:50 28.3 °F 26.0 °F 29.85 in Calm   1.0 mph 91% 0.00 in -SN
19:00 28.4 °F 26.3 °F 29.85 in Calm   1.0 mph 92% 0.00 in -SN
19:10 28.5 °F 26.5 °F 29.85 in Calm   1.0 mph 92% 0.00 in -SN
19:20 28.6 °F 26.6 °F 29.85 in Calm   1.0 mph 92% 0.00 in -SN
19:30 28.5 °F 26.5 °F 29.85 in Calm   1.0 mph 92% 0.00 in -SN
19:40 28.2 °F 26.2 °F 29.85 in Calm   1.0 mph 92% 0.00 in -SN
19:50 28.1 °F 26.1 °F 29.85 in Calm   1.0 mph 92% 0.00 in -SN
20:00 28.1 °F 26.3 °F 29.86 in Calm   1.0 mph 93% 0.00 in -SN
20:10 28.2 °F 26.4 °F 29.86 in Calm   1.0 mph 93% 0.00 in OVC
20:20 28.3 °F 26.5 °F 29.85 in Calm   1.0 mph 93% 0.00 in OVC
20:30 28.4 °F 26.6 °F 29.85 in Calm   1.0 mph 93% 0.00 in OVC
20:40 28.5 °F 26.7 °F 29.86 in Calm   1.0 mph 93% 0.00 in OVC
20:50 28.3 °F 26.5 °F 29.85 in Calm   1.0 mph 93% 0.00 in OVC
21:00 28.3 °F 26.5 °F 29.85 in Calm   1.0 mph 93% 0.00 in OVC
21:10 28.3 °F 26.5 °F 29.86 in Calm   1.0 mph 93% 0.00 in OVC
21:20 28.3 °F 26.5 °F 29.86 in Calm   1.0 mph 93% 0.00 in OVC
21:30 28.3 °F 26.8 °F 29.86 in Calm   1.0 mph 94% 0.00 in OVC
21:40 28.5 °F 27.0 °F 29.86 in Calm   1.0 mph 94% 0.00 in OVC
21:50 28.6 °F 27.1 °F 29.86 in Calm   2.0 mph 94% 0.00 in OVC
22:00 28.6 °F 27.1 °F 29.87 in Calm   1.0 mph 94% 0.00 in OVC
22:10 28.7 °F 27.2 °F 29.86 in Calm     94% 0.00 in OVC
22:20 28.8 °F 27.3 °F 29.86 in Calm     94% 0.00 in OVC
22:30 28.8 °F 27.3 °F 29.86 in Calm   1.0 mph 94% 0.00 in OVC
22:40 28.8 °F 27.3 °F 29.86 in Calm   1.0 mph 94% 0.00 in OVC
22:50 28.8 °F 27.3 °F 29.87 in Calm   1.0 mph 94% 0.00 in OVC
23:00 28.7 °F 27.2 °F 29.86 in Calm   1.0 mph 94% 0.00 in OVC
23:10 28.5 °F 27.0 °F 29.86 in Calm     94% 0.00 in OVC
23:20 28.4 °F 26.9 °F 29.86 in Calm   1.0 mph 94% 0.00 in OVC
23:30 28.4 °F 26.9 °F 29.86 in Calm     94% 0.00 in OVC
23:40 28.5 °F 27.0 °F 29.86 in Calm     94% 0.00 in OVC
23:50 28.5 °F 27.0 °F 29.86 in Calm     94% 0.00 in OVC
TarryTown NY Weather
Compliments of Weather Underground - 1.75 mb